Time;durP1;ratioP1;P1;durP2;ratioP2;P2;SDS_P1;SDS_P2;PMS_P1;PMS_P2;Temp;Humidity;BMP_temperature;BMP_pressure;BME280_temperature;BME280_humidity;BME280_pressure;Samples;Min_cycle;Max_cycle;Signal;HPM_P1;HPM_P2
2023/01/30 00:00:34;;;;;;;21.73;8.03;;;6.50;99.90;;;;;;5049838;28;20514;-70
2023/01/30 00:03:00;;;;;;;19.80;8.18;;;6.50;99.90;;;;;;5046827;28;20425;-69
2023/01/30 00:05:26;;;;;;;20.10;9.00;;;6.70;99.90;;;;;;5039423;28;20813;-68
2023/01/30 00:07:52;;;;;;;13.20;7.00;;;6.60;99.90;;;;;;5046107;28;20504;-70
2023/01/30 00:10:17;;;;;;;16.77;7.50;;;7.30;99.90;;;;;;5043727;28;20425;-69
2023/01/30 00:12:43;;;;;;;15.70;6.63;;;7.20;99.90;;;;;;5043309;28;20421;-69
2023/01/30 00:15:09;;;;;;;14.20;6.63;;;6.70;99.90;;;;;;5048324;28;20425;-69
2023/01/30 00:17:34;;;;;;;18.87;6.73;;;6.60;99.90;;;;;;5050596;28;20958;-69
2023/01/30 00:20:00;;;;;;;12.87;6.80;;;6.90;99.90;;;;;;5048818;28;20456;-69
2023/01/30 00:22:26;;;;;;;12.57;5.93;;;6.80;99.90;;;;;;5049043;28;20441;-70
2023/01/30 00:24:51;;;;;;;17.13;6.60;;;6.80;99.90;;;;;;5042078;28;20432;-69
2023/01/30 00:27:17;;;;;;;17.23;6.80;;;6.70;99.90;;;;;;5049359;28;20543;-69
2023/01/30 00:29:42;;;;;;;19.80;7.23;;;6.90;99.90;;;;;;5054013;28;20921;-68
2023/01/30 00:32:08;;;;;;;17.17;7.40;;;6.70;99.90;;;;;;5049505;28;20934;-68
2023/01/30 00:34:34;;;;;;;16.27;6.28;;;6.80;99.90;;;;;;5049887;28;20407;-69
2023/01/30 00:36:59;;;;;;;16.55;8.00;;;7.50;99.90;;;;;;5046883;28;20489;-69
2023/01/30 00:39:26;;;;;;;18.07;6.93;;;6.70;99.90;;;;;;5045135;28;20460;-69
2023/01/30 00:47:21;;;;;;;20.45;7.60;;;7.10;99.90;;;;;;5036865;28;20729;-69
2023/01/30 00:49:47;;;;;;;20.33;7.15;;;6.60;99.90;;;;;;5048671;28;20511;-68
2023/01/30 00:52:12;;;;;;;17.20;6.93;;;6.70;99.90;;;;;;5047039;28;20424;-70
2023/01/30 00:54:38;;;;;;;18.92;7.65;;;6.50;99.90;;;;;;5036949;28;21034;-70
2023/01/30 00:57:04;;;;;;;17.27;8.00;;;6.60;99.90;;;;;;5032373;28;20415;-70
2023/01/30 00:59:29;;;;;;;21.88;8.02;;;6.80;99.90;;;;;;5033590;28;20427;-69
2023/01/30 01:01:55;;;;;;;19.88;6.70;;;6.90;99.90;;;;;;5045147;28;21222;-69
2023/01/30 01:04:21;;;;;;;22.95;9.20;;;6.70;99.90;;;;;;5042906;28;20772;-69
2023/01/30 01:06:46;;;;;;;17.65;7.00;;;7.30;99.90;;;;;;5045851;28;20783;-69
2023/01/30 01:09:12;;;;;;;18.08;7.32;;;6.60;99.90;;;;;;5045855;28;20445;-69
2023/01/30 01:11:38;;;;;;;22.27;7.63;;;6.30;99.90;;;;;;5026560;28;20425;-69
2023/01/30 01:14:05;;;;;;;21.40;8.00;;;6.50;99.90;;;;;;5037358;28;21048;-70
2023/01/30 01:16:32;;;;;;;22.50;7.20;;;6.60;99.90;;;;;;5035925;28;20513;-69
2023/01/30 01:18:58;;;;;;;16.05;7.15;;;6.40;99.90;;;;;;5030809;28;20438;-70
2023/01/30 01:21:24;;;;;;;13.85;7.22;;;6.40;99.90;;;;;;5042183;28;20796;-70
2023/01/30 01:23:55;;;;;;;13.67;6.33;;;6.40;99.90;;;;;;5039128;28;20452;-68
2023/01/30 01:26:21;;;;;;;15.45;6.50;;;6.40;99.90;;;;;;5045455;28;20824;-70
2023/01/30 01:28:47;;;;;;;15.37;6.77;;;6.50;99.90;;;;;;5042043;28;21090;-70
2023/01/30 01:31:15;;;;;;;16.88;7.93;;;7.60;99.90;;;;;;5037380;28;20432;-69
2023/01/30 01:33:41;;;;;;;14.93;7.07;;;6.40;99.90;;;;;;5042773;28;20506;-69
2023/01/30 01:36:07;;;;;;;16.87;7.33;;;6.50;99.90;;;;;;5041530;28;20478;-69
2023/01/30 01:38:33;;;;;;;19.92;7.93;;;6.40;99.90;;;;;;5042161;28;21053;-69
2023/01/30 01:41:02;;;;;;;17.38;7.57;;;6.40;99.90;;;;;;5042495;28;20429;-69
2023/01/30 01:43:58;;;;;;;22.25;7.60;;;6.40;99.90;;;;;;5040742;28;20437;-69
2023/01/30 01:46:31;;;;;;;21.50;8.80;;;6.40;99.90;;;;;;5034382;28;21079;-69
2023/01/30 01:49:00;;;;;;;23.05;7.93;;;6.60;99.90;;;;;;5046703;28;20421;-69
2023/01/30 01:51:26;;;;;;;25.37;8.27;;;6.60;99.90;;;;;;5041369;28;20429;-70
2023/01/30 01:54:18;;;;;;;19.03;7.90;;;6.60;99.90;;;;;;5041877;28;20915;-70
2023/01/30 01:56:47;;;;;;;21.83;7.53;;;6.40;99.90;;;;;;5041092;28;20516;-69
2023/01/30 01:59:21;;;;;;;21.05;7.88;;;6.70;99.90;;;;;;5046234;28;20482;-68
2023/01/30 02:01:48;;;;;;;24.20;9.23;;;6.60;99.90;;;;;;5044853;28;20429;-70
2023/01/30 02:05:00;;;;;;;22.10;7.90;;;7.10;99.90;;;;;;5046670;28;20428;-70
2023/01/30 02:07:00;;;;;;;23.27;7.22;;;6.60;99.90;;;;;;5034193;28;20472;-68
2023/01/30 02:09:26;;;;;;;23.45;8.40;;;6.80;99.90;;;;;;5094770;22;20431;-75
2023/01/30 02:11:56;;;;;;;26.65;8.02;;;6.80;99.90;;;;;;5025796;28;20423;-75
2023/01/30 02:14:23;;;;;;;25.33;6.93;;;6.60;99.90;;;;;;5022632;28;20422;-76
2023/01/30 02:16:48;;;;;;;17.98;5.95;;;6.60;99.90;;;;;;5032956;28;20464;-75
2023/01/30 02:19:43;;;;;;;20.93;7.00;;;6.70;99.90;;;;;;5022167;28;20928;-76
2023/01/30 02:22:36;;;;;;;24.83;7.13;;;6.90;99.90;;;;;;5016267;28;20418;-75
2023/01/30 02:25:23;;;;;;;25.92;8.40;;;6.80;99.90;;;;;;5020245;28;20451;-75
2023/01/30 02:28:22;;;;;;;24.40;7.10;;;6.70;99.90;;;;;;5024034;28;20975;-77
2023/01/30 02:31:11;;;;;;;23.08;6.30;;;6.70;99.90;;;;;;5030819;28;20429;-76
2023/01/30 02:33:43;;;;;;;25.20;6.93;;;6.90;99.90;;;;;;5026965;28;20766;-76
2023/01/30 02:36:08;;;;;;;32.75;8.45;;;6.90;99.90;;;;;;5026977;28;20430;-76
2023/01/30 02:39:00;;;;;;;26.35;6.50;;;6.80;99.90;;;;;;5025287;28;20430;-77
2023/01/30 02:41:49;;;;;;;27.38;7.53;;;6.80;99.90;;;;;;5026012;28;20500;-74
2023/01/30 02:44:24;;;;;;;28.20;7.28;;;7.10;99.90;;;;;;5027080;28;20435;-76
2023/01/30 02:46:57;;;;;;;27.95;6.97;;;6.90;99.90;;;;;;5025286;28;20414;-75
2023/01/30 02:49:31;;;;;;;32.27;7.30;;;6.80;99.90;;;;;;5026414;28;20460;-76
2023/01/30 02:51:59;;;;;;;21.27;6.00;;;6.90;99.90;;;;;;5011667;28;20423;-76
2023/01/30 02:54:25;;;;;;;30.05;7.43;;;6.90;99.90;;;;;;5025493;28;20415;-76
2023/01/30 02:56:55;;;;;;;25.38;6.85;;;7.00;99.90;;;;;;5024886;28;20448;-76
2023/01/30 02:59:35;;;;;;;28.92;7.60;;;6.90;99.90;;;;;;5026611;28;20435;-76
2023/01/30 03:02:31;;;;;;;24.37;5.50;;;7.00;99.90;;;;;;5022612;28;20417;-76
2023/01/30 03:05:12;;;;;;;24.60;7.07;;;6.90;99.90;;;;;;5025771;28;20450;-75
2023/01/30 03:07:44;;;;;;;38.25;6.78;;;7.00;99.90;;;;;;5036600;28;20770;-76
2023/01/30 03:10:26;;;;;;;23.33;7.32;;;7.00;99.90;;;;;;5024714;28;20434;-76
2023/01/30 03:13:02;;;;;;;34.47;8.43;;;7.00;99.90;;;;;;5036821;28;20514;-75
2023/01/30 03:15:37;;;;;;;29.92;7.82;;;6.80;99.90;;;;;;5029983;28;20502;-78
2023/01/30 03:18:03;;;;;;;26.70;7.30;;;6.80;99.90;;;;;;5026439;28;20963;-76
2023/01/30 03:20:30;;;;;;;24.60;6.07;;;6.90;99.90;;;;;;5024305;28;20427;-76
2023/01/30 03:22:56;;;;;;;22.23;6.00;;;8.40;99.90;;;;;;5027389;28;20411;-76
2023/01/30 03:25:25;;;;;;;36.00;7.67;;;8.50;99.90;;;;;;5026299;28;20825;-76
2023/01/30 03:27:53;;;;;;;23.75;6.03;;;6.80;99.90;;;;;;5025843;28;20489;-76
2023/01/30 03:30:19;;;;;;;23.23;5.38;;;7.60;99.90;;;;;;5027503;28;20919;-75
2023/01/30 03:32:45;;;;;;;24.50;5.97;;;6.60;99.90;;;;;;5026688;28;20480;-76
2023/01/30 03:35:11;;;;;;;22.23;5.78;;;6.60;99.90;;;;;;5024903;28;20423;-76
2023/01/30 03:37:37;;;;;;;22.42;6.20;;;6.60;99.90;;;;;;5021663;28;20533;-77
2023/01/30 03:40:03;;;;;;;18.67;5.03;;;6.60;99.90;;;;;;5026455;28;20426;-77
2023/01/30 03:42:30;;;;;;;23.65;5.43;;;6.50;99.90;;;;;;5028281;28;20955;-76
2023/01/30 03:44:56;;;;;;;27.17;5.05;;;6.40;99.90;;;;;;5026561;28;20901;-75
2023/01/30 03:47:21;;;;;;;20.27;5.17;;;6.50;99.90;;;;;;5026437;28;20504;-76
2023/01/30 03:49:47;;;;;;;27.17;5.33;;;7.20;99.90;;;;;;5025758;28;20940;-76
2023/01/30 03:52:12;;;;;;;18.93;4.27;;;7.30;99.90;;;;;;5021939;28;20588;-75
2023/01/30 03:54:38;;;;;;;25.58;5.68;;;7.10;99.90;;;;;;5025709;28;20770;-77
2023/01/30 03:57:04;;;;;;;25.70;6.68;;;6.80;99.90;;;;;;5025502;28;20550;-76
2023/01/30 03:59:30;;;;;;;19.75;6.13;;;6.60;99.90;;;;;;5024496;28;20470;-76
2023/01/30 04:01:56;;;;;;;16.77;4.88;;;6.50;99.90;;;;;;5025303;28;20419;-76
2023/01/30 04:04:22;;;;;;;21.30;4.78;;;6.50;99.90;;;;;;5024081;28;20430;-75
2023/01/30 04:06:48;;;;;;;18.27;4.88;;;6.50;99.90;;;;;;5021588;28;20449;-75
2023/01/30 04:09:13;;;;;;;31.07;6.13;;;6.50;99.90;;;;;;5026265;28;20435;-75
2023/01/30 04:11:39;;;;;;;25.07;5.17;;;7.10;99.90;;;;;;5025508;28;20434;-76
2023/01/30 04:14:05;;;;;;;24.77;6.30;;;6.40;99.90;;;;;;5025439;28;20833;-78
2023/01/30 04:16:31;;;;;;;32.03;6.90;;;6.50;99.90;;;;;;5025203;28;20828;-76
2023/01/30 04:18:56;;;;;;;24.63;5.27;;;6.90;99.90;;;;;;5024519;28;20921;-76
2023/01/30 04:21:22;;;;;;;19.37;4.80;;;7.60;99.90;;;;;;5022498;28;20423;-75
2023/01/30 04:23:48;;;;;;;26.70;6.17;;;6.30;99.90;;;;;;5025463;28;20415;-76
2023/01/30 04:26:14;;;;;;;26.20;6.37;;;6.50;99.90;;;;;;5026713;28;20846;-76
2023/01/30 04:28:40;;;;;;;26.55;4.97;;;6.30;99.90;;;;;;5006593;28;20420;-76
2023/01/30 04:31:05;;;;;;;29.17;5.80;;;6.20;99.90;;;;;;5022550;28;20881;-76
2023/01/30 04:33:35;;;;;;;39.30;7.70;;;6.20;99.90;;;;;;5034142;28;20461;-76
2023/01/30 04:36:02;;;;;;;26.60;5.32;;;6.20;99.90;;;;;;5035519;28;20426;-76
2023/01/30 04:38:29;;;;;;;30.40;6.13;;;6.20;99.90;;;;;;5032020;28;20478;-77
2023/01/30 04:40:56;;;;;;;32.22;6.40;;;6.00;99.90;;;;;;5033687;28;20542;-75
2023/01/30 04:43:23;;;;;;;29.38;5.65;;;6.10;99.90;;;;;;5027429;28;20434;-75
2023/01/30 04:45:50;;;;;;;30.80;6.23;;;6.70;99.90;;;;;;5025090;28;20476;-76
2023/01/30 04:48:17;;;;;;;34.28;6.30;;;6.00;99.90;;;;;;5033552;28;20430;-76
2023/01/30 04:50:45;;;;;;;30.50;7.60;;;6.00;99.90;;;;;;5021496;28;20506;-76
2023/01/30 04:53:11;;;;;;;29.17;6.63;;;5.90;99.90;;;;;;5030701;28;20769;-76
2023/01/30 04:55:37;;;;;;;22.10;5.03;;;7.90;99.90;;;;;;5030262;28;20454;-77
2023/01/30 04:58:03;;;;;;;27.45;6.40;;;7.70;99.90;;;;;;5030610;28;20430;-77
2023/01/30 05:00:28;;;;;;;25.33;6.25;;;6.00;99.90;;;;;;5028974;28;20435;-78
2023/01/30 05:02:54;;;;;;;39.67;7.65;;;7.10;99.90;;;;;;5046776;28;20419;-78
2023/01/30 05:05:24;;;;;;;25.42;6.68;;;6.00;99.90;;;;;;5027940;28;20411;-76
2023/01/30 05:07:50;;;;;;;27.90;7.38;;;6.00;99.90;;;;;;5035016;28;20436;-76
2023/01/30 05:10:16;;;;;;;31.48;8.40;;;6.40;99.90;;;;;;5029875;28;20427;-77
2023/01/30 05:12:42;;;;;;;28.73;6.20;;;6.00;99.90;;;;;;5027918;28;20557;-76
2023/01/30 05:15:09;;;;;;;21.85;6.25;;;5.80;99.90;;;;;;5043424;28;20603;-76
2023/01/30 05:17:35;;;;;;;29.75;6.65;;;5.90;99.90;;;;;;5028243;28;20438;-78
2023/01/30 05:20:01;;;;;;;30.50;7.87;;;6.70;99.90;;;;;;5018225;28;20427;-77
2023/01/30 05:22:27;;;;;;;35.47;6.35;;;5.80;99.90;;;;;;5028609;28;20485;-76
2023/01/30 05:24:53;;;;;;;29.90;6.25;;;5.90;99.90;;;;;;5029206;28;20423;-77
2023/01/30 05:27:18;;;;;;;28.83;6.65;;;6.90;99.90;;;;;;5026751;28;20493;-77
2023/01/30 05:29:44;;;;;;;29.83;5.45;;;7.20;99.90;;;;;;5028181;28;20430;-76
2023/01/30 05:32:13;;;;;;;33.35;6.57;;;5.80;99.90;;;;;;5027452;28;20419;-76
2023/01/30 05:34:38;;;;;;;27.10;6.18;;;5.70;99.90;;;;;;5028748;28;20427;-75
2023/01/30 05:37:04;;;;;;;25.35;5.50;;;5.70;99.90;;;;;;5027023;28;20424;-75
2023/01/30 05:39:30;;;;;;;32.40;8.05;;;5.80;99.90;;;;;;5025630;28;20427;-76
2023/01/30 05:41:56;;;;;;;27.60;5.13;;;5.80;99.90;;;;;;5026121;28;20840;-76
2023/01/30 05:44:21;;;;;;;32.97;6.67;;;5.80;99.90;;;;;;5024871;28;20506;-75
2023/01/30 05:46:47;;;;;;;32.80;7.97;;;5.80;99.90;;;;;;5028986;28;20476;-76
2023/01/30 05:49:13;;;;;;;31.03;8.50;;;7.60;99.90;;;;;;5027020;28;20514;-76
2023/01/30 05:51:39;;;;;;;26.33;8.15;;;5.90;99.90;;;;;;5024993;28;20840;-76
2023/01/30 05:54:05;;;;;;;32.70;7.18;;;5.70;99.90;;;;;;5029594;28;20537;-78
2023/01/30 05:56:32;;;;;;;30.80;6.28;;;5.80;99.90;;;;;;5027784;28;20421;-77
2023/01/30 05:58:58;;;;;;;26.35;6.45;;;5.60;99.90;;;;;;5026807;28;20514;-76
2023/01/30 06:01:25;;;;;;;32.15;7.88;;;6.70;99.90;;;;;;5027232;28;20462;-78
2023/01/30 06:03:50;;;;;;;27.52;7.30;;;5.70;99.90;;;;;;5017127;28;20465;-76
2023/01/30 06:06:17;;;;;;;28.60;6.35;;;6.10;99.90;;;;;;5023400;28;20454;-76
2023/01/30 06:08:43;;;;;;;37.55;7.30;;;5.80;99.90;;;;;;5022558;28;20433;-77
2023/01/30 06:11:12;;;;;;;29.65;7.05;;;5.80;99.90;;;;;;5026469;28;20823;-77
2023/01/30 06:13:38;;;;;;;26.40;5.50;;;6.00;99.90;;;;;;5009268;28;20407;-75
2023/01/30 06:16:07;;;;;;;31.20;5.87;;;6.00;99.90;;;;;;5031186;28;20458;-77
2023/01/30 06:18:33;;;;;;;32.63;6.93;;;5.90;99.90;;;;;;5032004;28;20434;-77
2023/01/30 06:21:00;;;;;;;24.83;6.78;;;6.00;99.90;;;;;;5022314;28;20453;-77
2023/01/30 06:23:26;;;;;;;25.92;7.35;;;5.90;99.90;;;;;;5028209;28;20466;-77
2023/01/30 06:25:53;;;;;;;28.88;6.07;;;7.40;99.90;;;;;;5026164;28;20452;-76
2023/01/30 06:28:21;;;;;;;25.90;6.50;;;6.00;99.90;;;;;;5028608;28;20399;-77
2023/01/30 06:30:47;;;;;;;33.65;8.23;;;6.70;99.90;;;;;;5039522;28;20915;-76
2023/01/30 06:33:13;;;;;;;21.55;5.43;;;5.90;99.90;;;;;;5032629;28;20427;-76
2023/01/30 06:35:40;;;;;;;30.75;6.32;;;6.00;99.90;;;;;;5027041;28;20504;-77
2023/01/30 06:38:08;;;;;;;30.40;7.83;;;6.00;99.90;;;;;;5028744;28;20836;-76
2023/01/30 06:40:34;;;;;;;33.00;7.30;;;6.90;99.90;;;;;;5026886;28;20750;-77
2023/01/30 06:42:59;;;;;;;29.25;6.40;;;6.40;99.90;;;;;;5034293;28;20461;-75
2023/01/30 06:45:25;;;;;;;25.42;6.65;;;6.00;99.90;;;;;;5025603;28;20418;-76
2023/01/30 06:47:52;;;;;;;35.40;6.55;;;6.30;99.90;;;;;;5013365;28;20781;-78
2023/01/30 06:50:21;;;;;;;27.98;6.68;;;6.00;99.90;;;;;;5026460;28;20742;-77
2023/01/30 06:52:49;;;;;;;31.27;7.60;;;7.90;99.90;;;;;;5026978;28;20430;-78
2023/01/30 06:55:17;;;;;;;27.30;6.47;;;6.10;99.90;;;;;;5024324;28;20427;-76
2023/01/30 06:57:43;;;;;;;28.15;5.75;;;6.10;99.90;;;;;;5024279;28;20427;-76
2023/01/30 07:00:15;;;;;;;30.98;7.80;;;6.00;99.90;;;;;;5022666;28;20948;-77
2023/01/30 07:02:40;;;;;;;37.50;7.93;;;6.00;99.90;;;;;;5037228;28;20422;-76
2023/01/30 07:05:08;;;;;;;32.17;6.72;;;7.80;99.90;;;;;;5024870;28;20434;-76
2023/01/30 07:07:34;;;;;;;34.67;7.03;;;5.90;99.90;;;;;;5026686;28;20407;-77
2023/01/30 07:10:00;;;;;;;33.65;7.53;;;7.80;99.90;;;;;;5027380;28;20837;-75
2023/01/30 07:12:26;;;;;;;27.67;7.00;;;6.20;99.90;;;;;;5027790;28;20410;-76
2023/01/30 07:14:53;;;;;;;32.28;7.78;;;6.80;99.90;;;;;;5026634;28;20419;-77
2023/01/30 07:17:19;;;;;;;34.50;7.15;;;6.00;99.90;;;;;;5026579;28;20424;-75
2023/01/30 07:19:45;;;;;;;27.20;6.43;;;6.00;99.90;;;;;;5011684;28;20946;-77
2023/01/30 07:22:11;;;;;;;30.25;8.05;;;6.00;99.90;;;;;;5009521;28;20839;-76
2023/01/30 07:24:38;;;;;;;33.87;6.90;;;7.70;99.90;;;;;;5025856;28;20434;-75
2023/01/30 07:27:06;;;;;;;34.35;7.55;;;6.00;99.90;;;;;;5024815;28;20419;-75
2023/01/30 07:29:34;;;;;;;25.15;7.78;;;5.90;99.90;;;;;;5024525;28;20514;-77
2023/01/30 07:32:00;;;;;;;36.28;7.93;;;6.00;99.90;;;;;;5027051;28;20430;-76
2023/01/30 07:34:26;;;;;;;32.70;7.60;;;6.00;99.90;;;;;;5027488;28;20423;-75
2023/01/30 07:36:52;;;;;;;36.33;8.55;;;6.00;99.90;;;;;;5021505;28;20435;-76
2023/01/30 07:39:17;;;;;;;32.15;7.78;;;6.00;99.90;;;;;;5024435;28;20438;-75
2023/01/30 07:41:43;;;;;;;36.58;8.10;;;6.00;99.90;;;;;;5023754;28;20426;-75
2023/01/30 07:44:09;;;;;;;29.88;6.47;;;6.10;99.90;;;;;;5025273;28;20521;-77
2023/01/30 07:46:35;;;;;;;33.72;7.57;;;6.60;99.90;;;;;;5028751;28;20468;-76
2023/01/30 07:49:01;;;;;;;29.38;6.75;;;6.10;99.90;;;;;;5008268;28;20428;-77
2023/01/30 07:51:27;;;;;;;24.58;6.53;;;7.80;99.90;;;;;;5017892;28;20419;-77
2023/01/30 07:53:53;;;;;;;25.98;6.63;;;6.20;99.90;;;;;;5028795;28;20418;-78
2023/01/30 07:56:22;;;;;;;33.03;7.20;;;6.20;99.90;;;;;;5031897;28;20496;-75
2023/01/30 07:58:49;;;;;;;29.90;7.47;;;7.60;99.90;;;;;;5030143;28;20438;-76
2023/01/30 08:01:15;;;;;;;32.00;6.45;;;7.30;99.90;;;;;;5025869;28;20485;-77
2023/01/30 08:03:43;;;;;;;29.40;6.05;;;7.10;99.90;;;;;;5026360;28;20477;-78
2023/01/30 08:06:09;;;;;;;29.25;6.18;;;6.10;99.90;;;;;;5025081;28;20510;-76
2023/01/30 08:08:34;;;;;;;25.10;6.35;;;6.10;99.90;;;;;;5028672;28;20561;-76
2023/01/30 08:11:00;;;;;;;29.90;7.32;;;7.80;99.90;;;;;;5030299;28;20415;-76
2023/01/30 08:13:26;;;;;;;36.95;8.02;;;7.80;99.90;;;;;;5031131;28;20430;-77
2023/01/30 08:15:52;;;;;;;29.48;7.22;;;6.20;99.90;;;;;;5030182;28;20422;-77
2023/01/30 08:18:17;;;;;;;28.38;8.02;;;6.20;99.90;;;;;;5030799;28;20772;-77
2023/01/30 08:20:43;;;;;;;36.50;8.57;;;6.10;99.90;;;;;;5029493;28;20896;-77
2023/01/30 08:23:09;;;;;;;27.40;6.03;;;6.20;99.90;;;;;;5033403;28;20434;-77
2023/01/30 08:25:35;;;;;;;35.70;8.23;;;6.20;99.90;;;;;;5027054;28;20431;-78
2023/01/30 08:28:02;;;;;;;38.15;7.53;;;6.30;99.90;;;;;;5026673;28;21125;-77
2023/01/30 08:30:29;;;;;;;27.63;7.18;;;6.30;99.90;;;;;;5029258;28;20921;-78
2023/01/30 08:32:55;;;;;;;34.85;7.70;;;7.80;99.90;;;;;;5029472;28;20442;-78
2023/01/30 08:35:21;;;;;;;29.73;8.18;;;6.30;99.90;;;;;;5028047;28;20537;-79
2023/01/30 08:37:47;;;;;;;37.90;10.15;;;6.30;99.90;;;;;;5018399;28;20574;-78
2023/01/30 08:40:13;;;;;;;35.15;7.72;;;6.30;99.90;;;;;;5027075;28;20457;-78
2023/01/30 08:42:39;;;;;;;33.33;8.77;;;6.30;99.90;;;;;;5029717;28;20415;-78
2023/01/30 08:45:05;;;;;;;37.92;9.90;;;6.40;99.90;;;;;;5012842;28;20417;-78
2023/01/30 08:47:31;;;;;;;35.77;8.00;;;6.30;99.90;;;;;;5028753;28;20495;-77
2023/01/30 08:49:57;;;;;;;42.90;8.88;;;6.20;99.90;;;;;;5029776;28;20498;-79
2023/01/30 08:52:22;;;;;;;31.23;8.18;;;8.20;99.90;;;;;;5029972;28;20471;-79
2023/01/30 08:54:48;;;;;;;33.40;7.53;;;6.40;99.90;;;;;;5037552;28;20496;-79
2023/01/30 08:57:14;;;;;;;29.83;7.63;;;6.60;99.90;;;;;;5048534;28;20935;-76
2023/01/30 08:59:40;;;;;;;38.85;9.77;;;8.00;99.90;;;;;;5050559;28;20471;-79
2023/01/30 09:02:09;;;;;;;31.87;8.63;;;7.30;99.90;;;;;;5042542;28;20423;-79
2023/01/30 09:04:35;;;;;;;32.30;7.57;;;6.70;99.90;;;;;;5028217;28;20493;-80
2023/01/30 09:07:00;;;;;;;35.20;8.43;;;6.70;99.90;;;;;;5030654;28;20777;-79
2023/01/30 09:09:28;;;;;;;31.73;7.88;;;9.20;99.90;;;;;;5032033;28;20430;-79
2023/01/30 09:11:53;;;;;;;33.70;8.93;;;6.70;99.90;;;;;;5030395;28;21014;-77
2023/01/30 09:14:19;;;;;;;33.77;8.63;;;7.20;99.90;;;;;;5025631;28;20506;-77
2023/01/30 09:16:55;;;;;;;30.90;7.57;;;6.70;99.90;;;;;;5025919;28;20413;-77
2023/01/30 09:19:22;;;;;;;35.15;8.23;;;6.80;99.90;;;;;;5027061;28;20493;-75
2023/01/30 09:21:49;;;;;;;32.97;7.85;;;6.90;99.90;;;;;;5029059;28;20494;-77
2023/01/30 09:24:15;;;;;;;37.13;7.93;;;6.90;99.90;;;;;;5032219;28;20418;-78
2023/01/30 09:26:43;;;;;;;30.60;7.50;;;6.90;99.90;;;;;;5031221;28;20474;-77
2023/01/30 09:29:10;;;;;;;33.70;7.63;;;6.90;99.90;;;;;;5027395;28;20478;-77
2023/01/30 09:31:37;;;;;;;29.75;6.72;;;6.90;99.90;;;;;;5029467;28;20438;-76
2023/01/30 09:34:02;;;;;;;31.70;7.78;;;6.90;99.90;;;;;;5027387;28;20982;-77
2023/01/30 09:36:28;;;;;;;32.27;7.23;;;6.80;99.90;;;;;;5027083;28;20513;-77
2023/01/30 09:38:54;;;;;;;37.13;9.40;;;7.50;99.90;;;;;;5031078;28;21086;-76
2023/01/30 09:41:52;;;;;;;39.72;9.13;;;7.10;99.90;;;;;;5027161;28;20504;-77
2023/01/30 09:44:39;;;;;;;38.85;9.85;;;6.70;99.90;;;;;;5028109;28;20430;-75
2023/01/30 09:47:35;;;;;;;31.83;7.60;;;6.70;99.90;;;;;;5029019;28;20917;-78
2023/01/30 09:50:27;;;;;;;40.25;9.45;;;6.80;99.90;;;;;;5026723;28;20868;-77
2023/01/30 09:53:15;;;;;;;39.95;8.50;;;6.80;99.90;;;;;;5027442;28;20431;-76
2023/01/30 09:55:41;;;;;;;28.40;7.63;;;6.80;99.90;;;;;;5016376;28;20434;-78
2023/01/30 09:58:17;;;;;;;34.15;7.53;;;6.90;99.90;;;;;;5029410;28;20908;-77
2023/01/30 10:00:45;;;;;;;33.65;8.50;;;7.00;99.90;;;;;;5029003;28;20414;-77
2023/01/30 10:03:13;;;;;;;30.52;6.82;;;7.10;99.90;;;;;;5028629;28;20657;-75
2023/01/30 10:05:49;;;;;;;31.90;8.50;;;7.90;99.90;;;;;;5034623;28;20947;-77
2023/01/30 10:08:41;;;;;;;35.70;7.67;;;7.20;99.90;;;;;;5026846;28;20877;-74
2023/01/30 10:11:28;;;;;;;29.50;7.67;;;7.30;99.90;;;;;;5017714;28;20439;-75
2023/01/30 10:14:16;;;;;;;29.95;7.82;;;7.30;99.90;;;;;;5027458;28;20454;-76
2023/01/30 10:17:04;;;;;;;29.75;7.80;;;7.30;99.90;;;;;;5034437;28;20507;-76
2023/01/30 10:19:36;;;;;;;26.67;7.28;;;7.50;99.90;;;;;;5033526;28;20504;-76
2023/01/30 10:22:26;;;;;;;34.75;8.13;;;7.50;99.90;;;;;;5027600;28;20561;-77
2023/01/30 10:25:31;;;;;;;30.92;7.45;;;7.50;99.90;;;;;;5012012;28;20467;-74
2023/01/30 10:28:10;;;;;;;30.92;6.53;;;7.50;99.90;;;;;;5008687;28;20456;-78
2023/01/30 10:30:36;;;;;;;36.28;8.27;;;7.60;99.90;;;;;;5009094;28;20409;-75
2023/01/30 10:33:22;;;;;;;36.40;8.75;;;7.70;99.90;;;;;;5029118;28;20814;-78
2023/01/30 10:36:07;;;;;;;29.42;7.20;;;7.60;99.90;;;;;;5011901;28;20789;-77
2023/01/30 10:38:40;;;;;;;44.37;7.77;;;7.60;99.90;;;;;;5025914;28;20442;-76
2023/01/30 10:41:11;;;;;;;33.72;7.30;;;7.40;99.90;;;;;;5025349;28;20423;-77
2023/01/30 10:43:42;;;;;;;21.67;5.57;;;7.30;99.90;;;;;;5023052;28;20782;-78
2023/01/30 10:46:14;;;;;;;19.33;3.90;;;6.80;99.90;;;;;;5026916;28;20434;-76
2023/01/30 10:48:56;;;;;;;22.15;5.93;;;6.40;99.90;;;;;;5027021;28;20968;-76
2023/01/30 10:51:51;;;;;;;22.02;5.82;;;6.20;99.90;;;;;;5029829;28;20431;-77
2023/01/30 10:54:40;;;;;;;16.42;4.15;;;6.00;99.90;;;;;;5039919;28;20427;-80
2023/01/30 10:57:21;;;;;;;24.88;5.65;;;6.00;99.90;;;;;;5031700;28;20418;-78
2023/01/30 11:00:16;;;;;;;23.17;5.53;;;6.10;99.90;;;;;;5026951;28;20514;-77
2023/01/30 11:03:03;;;;;;;23.80;5.68;;;6.30;99.90;;;;;;5018331;28;20464;-76
2023/01/30 11:05:54;;;;;;;19.47;4.77;;;6.50;99.90;;;;;;5031802;28;20552;-75
2023/01/30 11:08:26;;;;;;;15.80;3.33;;;6.60;99.90;;;;;;5025676;28;20427;-78
2023/01/30 11:10:53;;;;;;;14.60;3.65;;;8.10;99.90;;;;;;5027010;28;20473;-78
2023/01/30 11:13:24;;;;;;;15.20;3.30;;;6.90;99.90;;;;;;5025646;28;20423;-77
2023/01/30 11:15:52;;;;;;;13.35;3.03;;;6.90;99.90;;;;;;5025625;28;20976;-77
2023/01/30 11:18:20;;;;;;;14.52;3.05;;;7.00;99.90;;;;;;5008378;28;20915;-76
2023/01/30 11:20:57;;;;;;;24.55;4.30;;;7.50;99.90;;;;;;5025965;28;20415;-78
2023/01/30 11:23:31;;;;;;;20.35;5.20;;;7.30;99.90;;;;;;5037320;28;20850;-78
2023/01/30 11:25:57;;;;;;;25.05;6.00;;;7.70;99.90;;;;;;5024769;28;20494;-76
2023/01/30 11:28:25;;;;;;;21.60;4.75;;;7.60;99.90;;;;;;5026623;28;20954;-75
2023/01/30 11:30:59;;;;;;;12.02;3.20;;;9.30;99.90;;;;;;5028973;28;20826;-77
2023/01/30 11:33:33;;;;;;;20.50;4.30;;;8.40;99.90;;;;;;5040524;28;20471;-76
2023/01/30 11:36:05;;;;;;;12.95;4.32;;;6.70;99.90;;;;;;5023837;28;20427;-77
2023/01/30 11:38:37;;;;;;;11.40;2.87;;;6.60;99.90;;;;;;5023903;28;20445;-76
2023/01/30 11:41:09;;;;;;;14.60;2.67;;;7.50;99.90;;;;;;5031902;28;20423;-77
2023/01/30 11:43:38;;;;;;;19.50;3.78;;;6.40;99.90;;;;;;5025810;28;20431;-76
2023/01/30 11:46:06;;;;;;;11.50;2.92;;;6.40;99.90;;;;;;5027341;28;20433;-76
2023/01/30 11:48:35;;;;;;;9.23;2.03;;;6.20;99.90;;;;;;5029813;28;20427;-77
2023/01/30 11:51:05;;;;;;;17.35;3.38;;;7.90;99.90;;;;;;5041710;28;21053;-77
2023/01/30 11:53:36;;;;;;;11.43;2.85;;;6.50;99.90;;;;;;5030570;28;20434;-77
2023/01/30 11:56:19;;;;;;;16.33;3.50;;;6.60;99.90;;;;;;5030926;28;20505;-76
2023/01/30 11:58:57;;;;;;;13.07;3.40;;;6.80;99.90;;;;;;5027938;28;20535;-76
2023/01/30 12:01:29;;;;;;;15.83;3.50;;;8.10;99.90;;;;;;5032288;28;20598;-75
2023/01/30 12:03:57;;;;;;;14.00;3.88;;;7.10;99.90;;;;;;5029551;28;20415;-76
2023/01/30 12:06:32;;;;;;;19.90;4.70;;;7.20;99.90;;;;;;5030406;28;20509;-76
2023/01/30 12:08:59;;;;;;;23.73;4.60;;;7.20;99.90;;;;;;5030045;28;20419;-76
2023/01/30 12:11:40;;;;;;;15.95;4.72;;;7.40;99.90;;;;;;5029250;28;20951;-77
2023/01/30 12:14:24;;;;;;;17.53;4.57;;;7.40;99.90;;;;;;5030741;28;20578;-76
2023/01/30 12:17:33;;;;;;;19.23;4.68;;;7.60;99.90;;;;;;5031423;28;20409;-76
2023/01/30 12:20:06;;;;;;;23.00;4.75;;;7.70;99.90;;;;;;5011116;28;20409;-76
2023/01/30 12:22:52;;;;;;;21.88;4.57;;;7.60;99.90;;;;;;5029157;28;20762;-76
2023/01/30 12:25:32;;;;;;;19.33;6.05;;;7.50;99.90;;;;;;5011605;28;20405;-78
2023/01/30 12:28:31;;;;;;;17.30;3.72;;;7.40;99.90;;;;;;5029912;28;20435;-76
2023/01/30 12:31:34;;;;;;;18.50;4.10;;;7.40;99.90;;;;;;5027726;28;20947;-75
2023/01/30 12:34:04;;;;;;;18.75;4.60;;;7.40;99.90;;;;;;5017732;28;20933;-76
2023/01/30 12:36:52;;;;;;;13.88;3.67;;;9.50;99.90;;;;;;5029812;28;20390;-76
2023/01/30 12:40:00;;;;;;;16.67;3.60;;;7.40;99.90;;;;;;5029830;28;20768;-75
2023/01/30 12:42:34;;;;;;;17.67;4.20;;;7.50;99.90;;;;;;5026129;28;20450;-75
2023/01/30 12:45:39;;;;;;;17.25;4.93;;;7.50;99.90;;;;;;5050373;28;20468;-76
2023/01/30 12:48:37;;;;;;;19.00;3.93;;;7.40;99.90;;;;;;5013831;28;20929;-76
2023/01/30 12:51:41;;;;;;;19.63;4.82;;;7.40;99.90;;;;;;5035569;28;20446;-76
2023/01/30 12:54:28;;;;;;;17.38;4.13;;;7.50;99.90;;;;;;4971569;28;20532;-75
2023/01/30 12:56:59;;;;;;;19.90;4.20;;;7.60;99.90;;;;;;5030400;28;20419;-77
2023/01/30 12:59:25;;;;;;;30.27;5.57;;;7.70;99.90;;;;;;5031298;28;20527;-75
2023/01/30 13:02:14;;;;;;;30.33;7.55;;;7.70;99.90;;;;;;5030985;28;20991;-77
2023/01/30 13:04:49;;;;;;;26.10;5.28;;;7.90;99.90;;;;;;5028207;28;20435;-76
2023/01/30 13:07:29;;;;;;;30.40;6.93;;;7.80;99.90;;;;;;5031051;28;20439;-76
2023/01/30 13:10:37;;;;;;;18.25;4.05;;;7.80;99.90;;;;;;5026611;28;20866;-77
2023/01/30 13:13:10;;;;;;;29.30;6.35;;;7.70;99.90;;;;;;5015841;28;20476;-75